createdAt,value
2024-05-09T00:00:40.365Z,15.40
2024-05-09T00:03:10.083Z,14.77
2024-05-09T00:05:40.144Z,14.05
2024-05-09T00:08:09.363Z,12.65
2024-05-09T00:10:38.931Z,14.48
2024-05-09T00:13:07.691Z,13.68
2024-05-09T00:15:35.763Z,14.60
2024-05-09T00:18:03.900Z,14.45
2024-05-09T00:23:01.033Z,13.68
2024-05-09T00:25:27.899Z,16.13
2024-05-09T00:27:54.730Z,16.13
2024-05-09T00:30:30.677Z,15.00
2024-05-09T00:33:01.098Z,14.85
2024-05-09T00:35:28.318Z,14.85
2024-05-09T00:37:55.407Z,14.25
2024-05-09T00:40:30.905Z,14.60
2024-05-09T00:43:05.988Z,13.90
2024-05-09T00:45:34.346Z,13.52
2024-05-09T00:48:05.117Z,14.48
2024-05-09T00:50:36.898Z,12.70
2024-05-09T00:55:36.389Z,13.13
2024-05-09T00:58:05.075Z,13.93
2024-05-09T01:00:38.546Z,13.75
2024-05-09T01:03:08.465Z,13.73
2024-05-09T01:05:39.160Z,14.23
2024-05-09T01:08:07.096Z,13.70
2024-05-09T01:10:35.724Z,14.23
2024-05-09T01:13:04.604Z,14.60
2024-05-09T01:15:31.878Z,14.52
2024-05-09T01:18:01.387Z,15.35
2024-05-09T01:20:39.117Z,15.15
2024-05-09T01:23:09.901Z,15.15
2024-05-09T01:25:37.332Z,15.18
2024-05-09T01:28:04.525Z,15.50
2024-05-09T01:30:35.006Z,14.45
2024-05-09T01:33:09.029Z,15.45
2024-05-09T01:35:38.762Z,17.38
2024-05-09T01:38:06.685Z,17.00
2024-05-09T01:40:38.369Z,16.15
2024-05-09T01:43:11.050Z,17.35
2024-05-09T01:45:41.904Z,15.70
2024-05-09T01:48:10.177Z,16.52
2024-05-09T01:50:41.330Z,16.75
2024-05-09T01:53:11.594Z,17.73
2024-05-09T01:55:38.738Z,15.45
2024-05-09T01:58:05.703Z,17.17
2024-05-09T02:00:39.119Z,15.43
2024-05-09T02:03:12.279Z,16.35
2024-05-09T02:05:42.764Z,16.73
2024-05-09T02:08:17.702Z,16.50
2024-05-09T02:10:46.442Z,16.35
2024-05-09T02:13:13.914Z,16.63
2024-05-09T02:15:41.139Z,15.70
2024-05-09T02:18:09.017Z,13.93
2024-05-09T02:20:38.995Z,14.90
2024-05-09T02:23:06.783Z,17.08
2024-05-09T02:25:34.215Z,15.60
2024-05-09T02:28:01.450Z,16.65
2024-05-09T02:32:58.202Z,16.98
2024-05-09T02:35:26.725Z,16.95
2024-05-09T02:37:53.732Z,16.23
2024-05-09T02:40:28.367Z,16.42
2024-05-09T02:43:00.933Z,16.85
2024-05-09T02:45:27.802Z,16.65
2024-05-09T02:47:54.993Z,17.13
2024-05-09T02:50:29.885Z,18.38
2024-05-09T02:53:03.872Z,18.42
2024-05-09T02:55:30.743Z,16.58
2024-05-09T02:57:57.558Z,17.58
2024-05-09T03:00:33.651Z,16.65
2024-05-09T03:03:05.679Z,17.23
2024-05-09T03:05:32.999Z,17.98
2024-05-09T03:08:00.008Z,17.83
2024-05-09T03:10:29.114Z,17.58
2024-05-09T03:13:09.239Z,16.98
2024-05-09T03:15:36.551Z,16.67
2024-05-09T03:18:04.632Z,15.20
2024-05-09T03:20:34.917Z,16.55
2024-05-09T03:23:03.951Z,15.88
2024-05-09T03:25:31.216Z,15.68
2024-05-09T03:27:58.081Z,15.32
2024-05-09T03:30:36.677Z,15.00
2024-05-09T03:33:18.031Z,14.35
2024-05-09T03:35:47.241Z,14.10
2024-05-09T03:38:14.510Z,13.32
2024-05-09T03:40:49.627Z,14.13
2024-05-09T03:43:18.062Z,12.38
2024-05-09T03:45:47.169Z,12.60
2024-05-09T03:48:14.226Z,13.75
2024-05-09T03:50:41.672Z,13.57
2024-05-09T03:53:13.279Z,14.35
2024-05-09T03:55:40.605Z,13.67
2024-05-09T03:58:08.054Z,13.18
2024-05-09T04:00:39.758Z,13.85
2024-05-09T04:03:10.313Z,13.93
2024-05-09T04:05:44.384Z,13.03
2024-05-09T04:08:13.772Z,13.55
2024-05-09T04:10:41.234Z,13.75
2024-05-09T04:13:09.175Z,13.02
2024-05-09T04:15:36.010Z,12.50
2024-05-09T04:18:03.188Z,13.13
2024-05-09T04:20:37.686Z,13.27
2024-05-09T04:23:08.923Z,11.45
2024-05-09T04:25:37.150Z,12.80
2024-05-09T04:28:04.443Z,12.15
2024-05-09T04:30:37.855Z,11.77
2024-05-09T04:33:09.573Z,12.68
2024-05-09T04:35:38.903Z,11.38
2024-05-09T04:38:06.388Z,11.75
2024-05-09T04:40:36.110Z,13.50
2024-05-09T04:43:13.692Z,12.52
2024-05-09T04:45:40.841Z,11.02
2024-05-09T04:48:08.386Z,11.55
2024-05-09T04:50:38.435Z,11.40
2024-05-09T04:53:08.784Z,11.48
2024-05-09T04:55:37.300Z,11.23
2024-05-09T04:58:05.411Z,10.93
2024-05-09T05:00:37.077Z,12.07
2024-05-09T05:05:36.022Z,10.93
2024-05-09T05:08:05.418Z,11.18
2024-05-09T05:10:36.212Z,12.40
2024-05-09T05:13:19.859Z,11.10
2024-05-09T05:15:55.425Z,12.05
2024-05-09T05:18:23.208Z,11.20
2024-05-09T05:20:50.629Z,12.13
2024-05-09T05:23:21.778Z,12.52
2024-05-09T05:25:50.108Z,12.32
2024-05-09T05:28:17.424Z,11.50
2024-05-09T05:30:44.889Z,10.93
2024-05-09T05:33:13.588Z,11.38
2024-05-09T05:35:41.320Z,11.35
2024-05-09T05:38:09.196Z,11.15
2024-05-09T05:40:38.438Z,10.77
2024-05-09T05:43:10.804Z,11.55
2024-05-09T05:45:39.026Z,11.40
2024-05-09T05:48:07.573Z,12.23
2024-05-09T05:50:37.448Z,12.10
2024-05-09T05:53:07.384Z,11.52
2024-05-09T05:55:35.188Z,12.45
2024-05-09T05:58:02.577Z,12.85
2024-05-09T06:00:36.989Z,12.13
2024-05-09T06:03:06.326Z,12.65
2024-05-09T06:05:33.669Z,12.80
2024-05-09T06:08:00.902Z,13.05
2024-05-09T06:10:37.156Z,13.43
2024-05-09T06:13:07.299Z,14.30
2024-05-09T06:15:34.214Z,13.25
2024-05-09T06:18:01.639Z,13.85
2024-05-09T06:20:35.573Z,14.30
2024-05-09T06:23:05.796Z,13.30
2024-05-09T06:25:32.866Z,13.70
2024-05-09T06:28:00.774Z,13.05
2024-05-09T06:30:36.777Z,12.63
2024-05-09T06:33:08.751Z,14.05
2024-05-09T06:35:36.443Z,13.13
2024-05-09T06:38:03.753Z,13.05
2024-05-09T06:40:37.253Z,13.73
2024-05-09T06:43:15.056Z,14.43
2024-05-09T06:45:43.480Z,13.02
2024-05-09T06:48:10.707Z,14.13
2024-05-09T06:50:39.496Z,15.55
2024-05-09T06:53:10.169Z,13.77
2024-05-09T06:55:37.611Z,13.82
2024-05-09T06:58:07.129Z,14.52
2024-05-09T07:00:39.175Z,14.10
2024-05-09T07:03:14.271Z,13.88
2024-05-09T07:05:43.884Z,14.65
2024-05-09T07:08:11.329Z,14.82
2024-05-09T07:10:38.548Z,15.10
2024-05-09T07:13:09.835Z,12.88
2024-05-09T07:15:36.977Z,15.18
2024-05-09T07:18:19.931Z,13.52
2024-05-09T07:20:48.564Z,14.05
2024-05-09T07:23:16.547Z,15.30
2024-05-09T07:25:43.791Z,15.48
2024-05-09T07:28:15.833Z,15.57
2024-05-09T07:30:43.333Z,15.95
2024-05-09T07:33:15.869Z,17.25
2024-05-09T07:35:42.964Z,17.02
2024-05-09T07:38:09.958Z,17.77
2024-05-09T07:40:37.244Z,17.60
2024-05-09T07:43:08.414Z,20.67
2024-05-09T07:53:36.826Z,18.48
2024-05-09T07:55:56.822Z,16.95
2024-05-09T07:58:27.483Z,19.05
2024-05-09T08:00:55.124Z,18.92
2024-05-09T08:03:23.047Z,21.15
2024-05-09T08:05:51.833Z,19.40
2024-05-09T08:08:18.790Z,19.95
2024-05-09T08:10:46.257Z,20.40
2024-05-09T08:13:13.419Z,20.35
2024-05-09T08:15:40.483Z,19.45
2024-05-09T08:18:09.679Z,19.25
2024-05-09T08:20:41.289Z,18.88
2024-05-09T08:23:08.377Z,19.35
2024-05-09T08:25:35.300Z,18.30
2024-05-09T08:28:04.909Z,17.95
2024-05-09T08:30:36.834Z,17.70
2024-05-09T08:33:06.214Z,20.02
2024-05-09T08:35:34.243Z,19.60
2024-05-09T08:38:03.382Z,19.45
2024-05-09T08:40:35.582Z,19.70
2024-05-09T08:43:09.006Z,19.38
2024-05-09T08:45:38.854Z,20.35
2024-05-09T08:48:08.840Z,19.83
2024-05-09T08:50:40.319Z,19.95
2024-05-09T08:53:08.551Z,21.20
2024-05-09T08:55:40.217Z,21.30
2024-05-09T08:58:13.967Z,20.27
2024-05-09T09:00:43.020Z,20.20
2024-05-09T09:03:12.603Z,22.00
2024-05-09T09:05:40.691Z,22.13
2024-05-09T09:08:08.809Z,20.55
2024-05-09T09:10:37.869Z,22.85
2024-05-09T09:13:07.220Z,23.88
2024-05-09T09:15:34.333Z,21.90
2024-05-09T09:18:01.559Z,21.77
2024-05-09T09:20:36.286Z,22.33
2024-05-09T09:23:04.600Z,20.52
2024-05-09T09:25:32.021Z,22.73
2024-05-09T09:27:59.599Z,22.40
2024-05-09T09:30:36.433Z,18.63
2024-05-09T09:33:11.789Z,17.90
2024-05-09T09:35:40.323Z,15.95
2024-05-09T09:38:08.059Z,15.73
2024-05-09T09:40:41.010Z,15.77
2024-05-09T09:43:22.398Z,16.48
2024-05-09T09:45:51.428Z,16.17
2024-05-09T09:48:20.108Z,15.65
2024-05-09T09:50:48.600Z,13.73
2024-05-09T09:53:16.954Z,13.43
2024-05-09T09:55:44.046Z,14.40
2024-05-09T09:58:14.226Z,16.40
2024-05-09T10:00:42.159Z,14.20
2024-05-09T10:03:09.871Z,13.13
2024-05-09T10:05:37.440Z,12.88
2024-05-09T10:08:07.316Z,12.77
2024-05-09T10:10:35.406Z,12.68
2024-05-09T10:13:06.828Z,12.43
2024-05-09T10:15:46.783Z,12.40
2024-05-09T10:18:14.530Z,12.02
2024-05-09T10:20:45.826Z,12.35
2024-05-09T10:23:31.201Z,11.77
2024-05-09T10:26:06.215Z,11.70
2024-05-09T10:28:36.636Z,13.23
2024-05-09T10:31:08.672Z,12.63
2024-05-09T10:33:37.633Z,13.60
2024-05-09T10:36:11.822Z,11.20
2024-05-09T10:38:40.735Z,12.38
2024-05-09T10:41:08.703Z,14.23
2024-05-09T10:43:39.124Z,12.80
2024-05-09T10:46:06.562Z,10.45
2024-05-09T10:48:34.134Z,11.85
2024-05-09T10:51:01.256Z,12.80
2024-05-09T10:53:28.029Z,10.70
2024-05-09T10:56:01.963Z,12.25
2024-05-09T10:58:29.007Z,10.57
2024-05-09T11:00:58.021Z,10.32
2024-05-09T11:03:25.459Z,11.38
2024-05-09T11:05:53.323Z,11.93
2024-05-09T11:08:22.099Z,12.05
2024-05-09T11:10:54.273Z,10.70
2024-05-09T11:13:27.165Z,10.07
2024-05-09T11:15:54.127Z,9.95
2024-05-09T11:18:25.462Z,10.23
2024-05-09T11:20:54.549Z,10.82
2024-05-09T11:23:30.522Z,10.45
2024-05-09T11:25:58.531Z,11.07
2024-05-09T11:28:28.120Z,10.50
2024-05-09T11:31:06.511Z,14.15
2024-05-09T11:33:37.127Z,9.70
2024-05-09T11:36:04.597Z,10.40
2024-05-09T11:38:31.942Z,9.18
2024-05-09T11:40:58.761Z,10.77
2024-05-09T11:43:25.676Z,9.43
2024-05-09T11:45:52.715Z,9.52
2024-05-09T11:48:19.843Z,9.88
2024-05-09T11:50:46.795Z,10.65
2024-05-09T11:53:13.608Z,10.10
2024-05-09T11:55:40.394Z,9.93
2024-05-09T11:58:08.268Z,8.93
2024-05-09T12:00:37.542Z,9.10
2024-05-09T12:03:06.032Z,9.45
2024-05-09T12:05:34.234Z,9.50
2024-05-09T12:08:01.872Z,10.90
2024-05-09T12:10:33.565Z,10.48
2024-05-09T12:13:04.966Z,8.90
2024-05-09T12:15:33.936Z,9.65
2024-05-09T12:18:03.601Z,10.25
2024-05-09T12:20:36.835Z,8.82
2024-05-09T12:23:07.008Z,9.15
2024-05-09T12:25:34.267Z,9.40
2024-05-09T12:28:01.424Z,8.63
2024-05-09T12:30:35.882Z,8.68
2024-05-09T12:33:09.982Z,8.43
2024-05-09T12:35:37.445Z,10.13
2024-05-09T12:38:04.857Z,9.43
2024-05-09T12:40:36.626Z,9.80
2024-05-09T12:43:07.922Z,10.20
2024-05-09T12:45:35.800Z,9.07
2024-05-09T12:48:04.531Z,9.73
2024-05-09T12:50:33.827Z,9.90
2024-05-09T12:53:02.768Z,10.40
2024-05-09T12:55:37.186Z,10.25
2024-05-09T12:58:11.590Z,9.85
2024-05-09T13:00:38.775Z,9.40
2024-05-09T13:03:06.108Z,9.63
2024-05-09T13:05:33.297Z,10.23
2024-05-09T13:08:00.933Z,10.10
2024-05-09T13:10:32.195Z,9.52
2024-05-09T13:13:01.496Z,9.18
2024-05-09T13:15:30.423Z,10.93
2024-05-09T13:18:00.556Z,10.98
2024-05-09T13:23:02.131Z,11.13
2024-05-09T13:25:29.277Z,9.40
2024-05-09T13:27:56.850Z,10.73
2024-05-09T13:30:29.874Z,10.32
2024-05-09T13:33:06.848Z,10.57
2024-05-09T13:35:35.761Z,9.48
2024-05-09T13:38:03.719Z,9.70
2024-05-09T13:40:34.517Z,12.50
2024-05-09T13:43:06.055Z,10.40
2024-05-09T13:45:33.929Z,10.05
2024-05-09T13:48:02.359Z,9.88
2024-05-09T13:50:35.793Z,10.05
2024-05-09T13:53:06.533Z,9.98
2024-05-09T13:55:35.396Z,10.63
2024-05-09T13:58:02.944Z,10.13
2024-05-09T14:02:59.765Z,9.45
2024-05-09T14:05:26.852Z,9.85
2024-05-09T14:07:53.841Z,9.65
2024-05-09T14:10:26.204Z,8.73
2024-05-09T14:12:57.864Z,8.00
2024-05-09T14:15:24.794Z,10.40
2024-05-09T14:17:51.867Z,9.02
2024-05-09T14:20:28.382Z,8.70
2024-05-09T14:22:58.683Z,9.10
2024-05-09T14:25:28.158Z,10.23
2024-05-09T14:27:56.844Z,8.48
2024-05-09T14:30:30.744Z,8.95
2024-05-09T14:33:06.526Z,8.52
2024-05-09T14:35:34.396Z,8.07
2024-05-09T14:38:01.421Z,8.02
2024-05-09T14:40:38.835Z,8.27
2024-05-09T14:43:14.641Z,9.35
2024-05-09T14:45:43.397Z,11.43
2024-05-09T14:48:11.686Z,9.02
2024-05-09T14:50:40.423Z,8.45
2024-05-09T14:53:09.458Z,8.20
2024-05-09T14:55:37.692Z,8.30
2024-05-09T14:58:09.234Z,9.43
2024-05-09T15:00:44.469Z,8.20
2024-05-09T15:03:15.135Z,7.28
2024-05-09T15:05:42.281Z,7.18
2024-05-09T15:08:09.232Z,8.10
2024-05-09T15:10:37.272Z,10.20
2024-05-09T15:13:06.580Z,8.45
2024-05-09T15:15:35.129Z,8.00
2024-05-09T15:18:03.470Z,8.68
2024-05-09T15:20:34.536Z,8.32
2024-05-09T15:23:04.441Z,8.10
2024-05-09T15:25:34.310Z,7.65
2024-05-09T15:28:01.406Z,7.55
2024-05-09T15:30:31.879Z,8.40
2024-05-09T15:33:03.120Z,6.85
2024-05-09T15:35:30.108Z,7.20
2024-05-09T15:37:57.011Z,6.47
2024-05-09T15:40:34.473Z,6.53
2024-05-09T15:43:06.794Z,6.53
2024-05-09T15:45:34.678Z,7.20
2024-05-09T15:48:03.302Z,7.93
2024-05-09T15:50:37.442Z,7.00
2024-05-09T15:53:08.815Z,7.40
2024-05-09T15:55:36.550Z,8.40
2024-05-09T15:58:04.936Z,7.28
2024-05-09T16:00:38.062Z,7.50
2024-05-09T16:03:09.457Z,8.63
2024-05-09T16:05:37.216Z,7.90
2024-05-09T16:08:05.146Z,7.53
2024-05-09T16:10:34.017Z,6.90
2024-05-09T16:13:02.542Z,7.18
2024-05-09T16:15:30.262Z,7.22
2024-05-09T16:17:57.455Z,5.82
2024-05-09T16:22:54.361Z,7.75
2024-05-09T16:25:21.519Z,6.40
2024-05-09T16:27:50.447Z,6.00
2024-05-09T16:30:24.796Z,7.15
2024-05-09T16:32:58.698Z,6.90
2024-05-09T16:35:25.620Z,6.78
2024-05-09T16:37:52.686Z,6.45
2024-05-09T16:40:29.297Z,7.38
2024-05-09T16:43:04.027Z,7.13
2024-05-09T16:45:31.509Z,7.00
2024-05-09T16:47:59.653Z,6.57
2024-05-09T16:50:32.337Z,7.35
2024-05-09T16:53:02.035Z,7.32
2024-05-09T16:55:29.193Z,7.35
2024-05-09T16:57:57.244Z,7.30
2024-05-09T17:00:35.263Z,6.95
2024-05-09T17:03:08.677Z,7.97
2024-05-09T17:05:36.418Z,7.60
2024-05-09T17:08:04.200Z,7.95
2024-05-09T17:10:33.826Z,8.40
2024-05-09T17:13:05.927Z,7.55
2024-05-09T17:15:34.246Z,7.55
2024-05-09T17:18:01.945Z,7.38
2024-05-09T17:20:33.747Z,7.25
2024-05-09T17:23:05.733Z,8.20
2024-05-09T17:25:33.534Z,6.80
2024-05-09T17:28:06.513Z,7.10
2024-05-09T17:30:37.017Z,7.18
2024-05-09T17:33:07.096Z,7.05
2024-05-09T17:35:35.713Z,7.20
2024-05-09T17:38:02.596Z,6.88
2024-05-09T17:40:33.814Z,6.88
2024-05-09T17:43:04.803Z,7.07
2024-05-09T17:45:32.637Z,6.80
2024-05-09T17:48:00.160Z,7.55
2024-05-09T17:50:34.904Z,7.93
2024-05-09T17:53:05.422Z,6.68
2024-05-09T17:55:32.618Z,6.60
2024-05-09T17:57:59.728Z,6.28
2024-05-09T18:02:56.751Z,6.82
2024-05-09T18:05:23.944Z,5.65
2024-05-09T18:07:50.975Z,6.10
2024-05-09T18:10:25.399Z,6.05
2024-05-09T18:12:56.826Z,5.43
2024-05-09T18:15:23.720Z,5.18
2024-05-09T18:17:52.035Z,5.55
2024-05-09T18:20:28.698Z,5.15
2024-05-09T18:23:05.377Z,5.50
2024-05-09T18:25:32.198Z,5.53
2024-05-09T18:27:59.085Z,5.40
2024-05-09T18:30:32.287Z,5.43
2024-05-09T18:33:02.463Z,5.50
2024-05-09T18:35:29.600Z,5.72
2024-05-09T18:37:56.567Z,5.30
2024-05-09T18:42:53.477Z,5.25
2024-05-09T18:45:20.329Z,5.13
2024-05-09T18:47:47.294Z,5.05
2024-05-09T18:50:20.752Z,4.85
2024-05-09T18:52:55.434Z,4.68
2024-05-09T18:55:22.330Z,4.90
2024-05-09T18:57:49.287Z,4.70
2024-05-09T19:00:26.048Z,4.80
2024-05-09T19:02:58.803Z,4.78
2024-05-09T19:05:25.979Z,4.78
2024-05-09T19:07:53.022Z,5.55
2024-05-09T19:10:22.959Z,5.10
2024-05-09T19:12:53.187Z,4.97
2024-05-09T19:15:20.182Z,5.68
2024-05-09T19:17:48.216Z,5.10
2024-05-09T19:20:24.898Z,5.97
2024-05-09T19:22:56.114Z,6.28
2024-05-09T19:25:22.912Z,5.40
2024-05-09T19:27:49.904Z,4.70
2024-05-09T19:30:25.708Z,5.47
2024-05-09T19:33:01.423Z,6.15
2024-05-09T19:35:28.364Z,4.55
2024-05-09T19:37:55.865Z,5.60
2024-05-09T19:40:29.023Z,5.20
2024-05-09T19:42:58.984Z,5.68
2024-05-09T19:45:25.982Z,5.93
2024-05-09T19:47:52.995Z,4.78
2024-05-09T19:50:26.998Z,5.30
2024-05-09T19:53:03.078Z,5.50
2024-05-09T19:55:30.113Z,5.93
2024-05-09T19:57:57.398Z,6.78
2024-05-09T20:00:32.549Z,6.32
2024-05-09T20:03:03.705Z,6.15
2024-05-09T20:05:31.246Z,6.95
2024-05-09T20:07:58.397Z,6.35
2024-05-09T20:10:31.409Z,6.57
2024-05-09T20:13:00.536Z,6.70
2024-05-09T20:15:27.510Z,6.55
2024-05-09T20:17:55.114Z,6.85
2024-05-09T20:22:52.124Z,9.70
2024-05-09T20:25:19.001Z,9.63
2024-05-09T20:27:45.924Z,10.73
2024-05-09T20:30:20.862Z,9.60
2024-05-09T20:32:52.035Z,9.88
2024-05-09T20:35:18.916Z,11.35
2024-05-09T20:37:45.722Z,11.48
2024-05-09T20:40:21.107Z,10.55
2024-05-09T20:42:52.318Z,12.10
2024-05-09T20:45:19.248Z,12.70
2024-05-09T20:47:46.204Z,12.15
2024-05-09T20:50:23.108Z,12.05
2024-05-09T20:52:55.596Z,11.45
2024-05-09T20:55:22.475Z,11.85
2024-05-09T20:57:49.346Z,12.02
2024-05-09T21:00:19.203Z,12.65
2024-05-09T21:02:52.247Z,12.95
2024-05-09T21:05:19.522Z,12.75
2024-05-09T21:07:46.482Z,13.15
2024-05-09T21:10:19.391Z,11.88
2024-05-09T21:12:49.724Z,10.38
2024-05-09T21:15:16.535Z,12.95
2024-05-09T21:17:43.698Z,13.77
2024-05-09T21:20:17.058Z,12.93
2024-05-09T21:22:47.276Z,12.38
2024-05-09T21:25:14.558Z,12.23
2024-05-09T21:27:41.520Z,14.10
2024-05-09T21:30:13.304Z,12.93
2024-05-09T21:32:45.768Z,12.38
2024-05-09T21:35:12.852Z,13.30
2024-05-09T21:37:39.677Z,11.32
2024-05-09T21:40:11.439Z,11.82
2024-05-09T21:42:40.807Z,14.10
2024-05-09T21:45:08.067Z,13.07
2024-05-09T21:47:35.140Z,14.70
2024-05-09T21:50:02.156Z,14.68
2024-05-09T21:52:29.346Z,14.90
2024-05-09T21:54:56.180Z,14.77
2024-05-09T21:57:23.062Z,14.00
2024-05-09T21:59:49.891Z,14.48
2024-05-09T22:02:16.906Z,13.20
2024-05-09T22:04:44.098Z,13.45
2024-05-09T22:07:11.091Z,16.42
2024-05-09T22:09:40.110Z,15.45
2024-05-09T22:12:07.095Z,14.10
2024-05-09T22:14:33.947Z,13.25
2024-05-09T22:17:00.807Z,14.65
2024-05-09T22:19:29.601Z,14.60
2024-05-09T22:21:56.605Z,16.05
2024-05-09T22:24:23.441Z,15.77
2024-05-09T22:26:52.108Z,15.40
2024-05-09T22:29:18.973Z,15.38
2024-05-09T22:31:45.792Z,14.20
2024-05-09T22:34:12.720Z,13.95
2024-05-09T22:36:39.916Z,14.60
2024-05-09T22:39:07.457Z,15.43
2024-05-09T22:41:34.354Z,14.48
2024-05-09T22:44:02.373Z,16.17
2024-05-09T22:46:29.284Z,15.82
2024-05-09T22:48:56.195Z,14.48
2024-05-09T22:51:23.061Z,15.55
2024-05-09T22:53:49.924Z,14.52
2024-05-09T22:56:26.752Z,14.68
2024-05-09T22:58:53.754Z,14.07
2024-05-09T23:01:21.881Z,15.05
2024-05-09T23:03:50.227Z,16.02
2024-05-09T23:06:17.184Z,15.98
2024-05-09T23:08:44.096Z,16.77
2024-05-09T23:11:11.281Z,16.08
2024-05-09T23:13:38.240Z,16.40
2024-05-09T23:16:05.646Z,17.27
2024-05-09T23:18:32.527Z,16.23
2024-05-09T23:21:00.820Z,15.43
2024-05-09T23:23:27.692Z,16.33
2024-05-09T23:25:54.554Z,17.25
2024-05-09T23:28:21.537Z,18.23
2024-05-09T23:30:48.779Z,18.35
2024-05-09T23:33:15.722Z,18.15
2024-05-09T23:35:44.293Z,18.00
2024-05-09T23:38:12.075Z,17.67
2024-05-09T23:40:41.033Z,18.23
2024-05-09T23:43:10.608Z,17.58
2024-05-09T23:45:38.227Z,17.58
2024-05-09T23:48:06.080Z,17.52
2024-05-09T23:50:36.700Z,18.45
2024-05-09T23:53:07.961Z,19.02
2024-05-09T23:55:36.145Z,19.10
2024-05-09T23:58:03.177Z,18.20
